Time;durP1;ratioP1;P1;durP2;ratioP2;P2;SDS_P1;SDS_P2;PMS_P1;PMS_P2;Temp;Humidity;BMP_temperature;BMP_pressure;BME280_temperature;BME280_humidity;BME280_pressure;Samples;Min_cycle;Max_cycle;Signal;HPM_P1;HPM_P2
2021/10/13 00:01:26;;;;;;;7.85;5.40;;;;;;;7.82;82.24;92958.69;5111508;28;20031;-49
2021/10/13 00:03:51;;;;;;;15.95;13.18;;;;;;;7.60;82.83;92966.25;5111457;27;20409;-49
2021/10/13 00:06:16;;;;;;;22.67;14.32;;;;;;;7.37;84.76;92962.63;5111441;28;20034;-49
2021/10/13 00:08:42;;;;;;;27.45;18.48;;;;;;;7.25;85.71;92964.22;5110957;28;20467;-49
2021/10/13 00:11:07;;;;;;;27.15;17.98;;;;;;;7.21;86.69;92969.28;5105060;28;20085;-49
2021/10/13 00:13:33;;;;;;;26.52;17.38;;;;;;;7.29;87.38;92966.59;5090989;28;20020;-49
2021/10/13 00:15:59;;;;;;;27.60;18.73;;;;;;;7.25;86.82;92955.97;5090980;28;20020;-48
2021/10/13 00:18:24;;;;;;;27.42;18.55;;;;;;;7.25;86.97;92963.47;5090512;28;20024;-49
2021/10/13 00:20:49;;;;;;;26.60;17.90;;;;;;;7.31;86.63;92972.28;5090536;28;20058;-49
2021/10/13 00:23:15;;;;;;;26.95;17.83;;;;;;;7.34;86.48;92958.22;5090265;28;20092;-51
2021/10/13 00:25:40;;;;;;;27.25;16.75;;;;;;;7.20;86.49;92950.63;5090464;28;20032;-49
2021/10/13 00:28:06;;;;;;;26.30;17.65;;;;;;;7.10;86.92;92960.63;5090485;28;20028;-49
2021/10/13 00:30:31;;;;;;;26.88;16.48;;;;;;;7.05;87.19;92954.00;5090441;28;20098;-48
2021/10/13 00:32:57;;;;;;;23.30;15.48;;;;;;;7.06;87.30;92955.44;5090748;28;20031;-50
2021/10/13 00:35:22;;;;;;;25.55;17.10;;;;;;;7.06;87.26;92952.00;5090168;28;20024;-49
2021/10/13 00:37:47;;;;;;;22.10;15.70;;;;;;;7.04;87.81;92949.06;5090277;28;20039;-48
2021/10/13 00:40:13;;;;;;;27.10;16.75;;;;;;;7.03;87.66;92959.28;5090302;28;20028;-48
2021/10/13 00:42:38;;;;;;;26.45;16.05;;;;;;;6.89;87.70;92936.69;5090390;28;20082;-48
2021/10/13 00:45:06;;;;;;;23.13;16.10;;;;;;;7.09;87.81;92956.41;5093639;28;20030;-48
2021/10/13 00:47:33;;;;;;;22.58;15.30;;;;;;;7.06;87.23;92954.75;5110555;28;20067;-49
2021/10/13 00:49:58;;;;;;;23.70;15.80;;;;;;;7.14;87.82;92956.25;5110930;28;20038;-49
2021/10/13 00:52:24;;;;;;;26.45;18.50;;;;;;;7.20;87.52;92950.63;5110919;28;20024;-49
2021/10/13 00:54:49;;;;;;;23.98;16.80;;;;;;;7.27;87.36;92949.94;5110501;28;20024;-49
2021/10/13 00:57:15;;;;;;;23.63;16.60;;;;;;;7.29;86.92;92950.13;5110707;28;20106;-51
2021/10/13 00:59:40;;;;;;;23.60;15.82;;;;;;;7.25;86.54;92955.25;5110736;28;20100;-50
2021/10/13 01:02:08;;;;;;;22.27;15.77;;;;;;;7.29;86.42;92948.13;5110812;28;20554;-49
2021/10/13 01:04:41;;;;;;;20.42;14.57;;;;;;;7.27;85.95;92934.22;5110394;28;20024;-49
2021/10/13 01:07:25;;;;;;;22.45;15.93;;;;;;;7.35;86.45;92934.97;5106575;28;20024;-52
2021/10/13 01:10:02;;;;;;;20.90;14.73;;;;;;;7.40;86.26;92947.09;5089139;28;20024;-50
2021/10/13 01:12:44;;;;;;;22.45;14.77;;;;;;;7.41;85.60;92941.06;5088857;28;20036;-49
2021/10/13 01:15:16;;;;;;;22.33;16.27;;;;;;;7.36;86.09;92941.94;5090337;28;20031;-48
2021/10/13 01:17:53;;;;;;;22.33;15.05;;;;;;;7.43;86.42;92932.25;5090150;28;20028;-50
2021/10/13 01:20:35;;;;;;;21.30;15.82;;;;;;;7.47;85.98;92935.44;5091014;28;20043;-51
2021/10/13 01:23:31;;;;;;;27.55;16.90;;;;;;;7.51;85.78;92936.53;5093522;28;20032;-51
2021/10/13 01:26:14;;;;;;;20.02;14.70;;;;;;;7.51;85.47;92933.78;5094244;28;20135;-48
2021/10/13 01:28:42;;;;;;;21.02;14.88;;;;;;;7.52;86.08;92932.50;5093853;28;20027;-48
2021/10/13 01:31:19;;;;;;;22.00;14.35;;;;;;;7.58;85.80;92924.09;5092859;28;20035;-48
2021/10/13 01:34:06;;;;;;;18.45;13.07;;;;;;;7.61;85.29;92931.28;5092772;28;20034;-51
2021/10/13 01:36:39;;;;;;;18.67;13.60;;;;;;;7.61;84.81;92923.78;5092472;28;20020;-49
2021/10/13 01:39:06;;;;;;;20.00;13.43;;;;;;;7.65;84.44;92929.66;5093841;28;20028;-49
2021/10/13 01:41:33;;;;;;;19.40;14.32;;;;;;;7.63;84.26;92934.97;5093463;28;20020;-50
2021/10/13 01:43:59;;;;;;;21.70;14.30;;;;;;;7.60;84.41;92935.31;5092616;28;20112;-48
2021/10/13 01:46:26;;;;;;;21.08;15.25;;;;;;;7.68;84.03;92929.84;5107022;28;20122;-49
2021/10/13 01:48:52;;;;;;;20.88;14.55;;;;;;;7.68;84.12;92932.59;5112456;28;20047;-49
2021/10/13 01:51:18;;;;;;;21.58;15.32;;;;;;;7.59;84.18;92931.09;5112622;28;20045;-48
2021/10/13 01:53:44;;;;;;;19.42;14.00;;;;;;;7.56;84.30;92935.66;5112756;28;20111;-49
2021/10/13 01:56:10;;;;;;;21.67;15.20;;;;;;;7.51;84.52;92917.28;5113677;28;20072;-52
2021/10/13 01:58:37;;;;;;;20.88;14.40;;;;;;;7.63;84.33;92934.97;5112552;28;20051;-49
2021/10/13 02:01:03;;;;;;;19.25;14.02;;;;;;;7.57;84.11;92917.91;5112737;28;20022;-48
2021/10/13 02:03:30;;;;;;;20.83;15.13;;;;;;;7.67;83.84;92923.59;5108736;28;20031;-49
2021/10/13 02:06:00;;;;;;;19.58;14.40;;;;;;;7.69;83.92;92934.06;5091902;28;20028;-49
2021/10/13 02:08:26;;;;;;;18.70;13.77;;;;;;;7.71;83.65;92934.25;5091886;28;20493;-48
2021/10/13 02:10:53;;;;;;;20.98;15.00;;;;;;;7.71;83.97;92943.22;5091762;28;20081;-49
2021/10/13 02:13:20;;;;;;;17.90;13.02;;;;;;;7.70;84.10;92941.75;5094355;28;20492;-49
2021/10/13 02:15:46;;;;;;;19.45;14.15;;;;;;;7.69;84.04;92936.81;5112065;28;20525;-48
2021/10/13 02:18:23;;;;;;;23.30;14.38;;;;;;;7.71;84.31;92948.72;5113433;28;20024;-50
2021/10/13 02:20:49;;;;;;;20.65;15.00;;;;;;;7.74;84.24;92944.16;5113563;28;20462;-48
2021/10/13 02:23:15;;;;;;;18.67;13.80;;;;;;;7.71;84.44;92937.72;5098059;28;20028;-49
2021/10/13 02:25:45;;;;;;;20.75;14.38;;;;;;;7.73;84.43;92939.94;5092758;28;20063;-49
2021/10/13 02:28:21;;;;;;;20.30;14.35;;;;;;;7.69;84.46;92945.78;5091471;28;20523;-49
2021/10/13 02:30:46;;;;;;;22.70;14.88;;;;;;;7.62;84.53;92944.47;5091441;28;20131;-48
2021/10/13 02:33:12;;;;;;;20.58;14.32;;;;;;;7.69;84.54;92956.78;5092513;28;20099;-50
2021/10/13 02:35:37;;;;;;;18.55;13.43;;;;;;;7.64;84.59;92938.44;5092526;28;20016;-50
2021/10/13 02:38:04;;;;;;;19.00;13.85;;;;;;;7.56;84.41;92938.38;5092394;28;20098;-48
2021/10/13 02:40:29;;;;;;;18.10;13.60;;;;;;;7.64;84.43;92941.19;5092703;28;20020;-49
2021/10/13 02:42:55;;;;;;;18.63;12.90;;;;;;;7.52;83.66;92943.50;5092408;28;20030;-50
2021/10/13 02:45:20;;;;;;;18.73;13.32;;;;;;;7.52;84.83;92940.75;5097657;28;20089;-49
2021/10/13 02:47:47;;;;;;;19.20;13.85;;;;;;;7.54;84.81;92949.19;5112578;28;20063;-49
2021/10/13 02:50:27;;;;;;;21.60;15.07;;;;;;;7.51;85.05;92944.06;5111667;28;20032;-48
2021/10/13 02:53:14;;;;;;;19.73;13.13;;;;;;;7.51;84.89;92944.75;5111734;28;20032;-51
2021/10/13 02:55:54;;;;;;;22.88;15.95;;;;;;;7.51;85.10;92952.28;5112833;28;20073;-50
2021/10/13 02:58:40;;;;;;;23.15;15.73;;;;;;;7.48;85.37;92951.34;5112688;28;20050;-49
2021/10/13 03:01:07;;;;;;;19.00;13.68;;;;;;;7.52;84.63;92957.22;5112208;28;20032;-50
2021/10/13 03:03:35;;;;;;;22.20;14.93;;;;;;;7.51;84.35;92955.75;5110592;28;20023;-52
2021/10/13 03:06:02;;;;;;;21.50;15.07;;;;;;;7.50;84.61;92962.53;5111080;28;20051;-54
2021/10/13 03:08:29;;;;;;;19.55;14.05;;;;;;;7.50;84.61;92973.53;5112585;28;20024;-53
2021/10/13 03:10:56;;;;;;;19.80;13.85;;;;;;;7.53;84.47;92966.97;5110983;28;20102;-52
2021/10/13 03:13:25;;;;;;;17.63;13.23;;;;;;;7.45;84.24;92963.41;5112420;28;20036;-52
2021/10/13 03:15:51;;;;;;;20.67;14.43;;;;;;;7.35;83.76;92959.69;5112358;28;20039;-53
2021/10/13 03:18:17;;;;;;;19.00;14.05;;;;;;;7.32;84.21;92969.00;5111094;28;20104;-53
2021/10/13 03:20:43;;;;;;;22.77;14.80;;;;;;;7.36;84.57;92969.38;5112290;28;20488;-54
2021/10/13 03:23:08;;;;;;;20.75;15.18;;;;;;;7.30;84.20;92968.81;5098530;28;20103;-53
2021/10/13 03:25:34;;;;;;;23.05;16.23;;;;;;;7.27;83.54;92974.66;5091850;28;20062;-53
2021/10/13 03:28:01;;;;;;;20.38;15.02;;;;;;;7.25;83.94;92974.47;5091768;28;20024;-50
2021/10/13 03:30:27;;;;;;;20.90;14.00;;;;;;;7.25;84.20;92975.19;5091478;28;20489;-54
2021/10/13 03:32:53;;;;;;;20.48;14.52;;;;;;;7.27;84.31;92966.41;5091672;28;20031;-53
2021/10/13 03:35:26;;;;;;;23.35;16.63;;;;;;;7.25;84.16;92972.44;5091671;28;20103;-53
2021/10/13 03:37:52;;;;;;;24.58;16.20;;;;;;;7.23;84.10;92982.50;5091259;28;20031;-52
2021/10/13 03:40:18;;;;;;;21.35;15.10;;;;;;;7.24;84.45;92972.97;5091261;28;20035;-52
2021/10/13 03:42:44;;;;;;;22.40;15.55;;;;;;;7.25;84.30;92983.44;5090775;28;20413;-53
2021/10/13 03:45:14;;;;;;;24.35;17.73;;;;;;;7.25;84.17;92983.44;5094964;28;20049;-52
2021/10/13 03:47:40;;;;;;;29.48;17.40;;;;;;;7.17;83.81;92966.16;5111413;28;20042;-54
2021/10/13 03:50:06;;;;;;;29.05;18.42;;;;;;;7.13;84.41;92954.03;5111774;28;20565;-54
2021/10/13 03:52:31;;;;;;;28.63;17.65;;;;;;;7.28;84.22;92979.59;5111655;28;20023;-53
2021/10/13 03:54:57;;;;;;;25.75;16.70;;;;;;;7.27;84.23;92980.16;5095222;28;20093;-52
2021/10/13 03:57:22;;;;;;;23.95;16.00;;;;;;;7.28;84.35;92981.59;5107314;28;20066;-53
2021/10/13 03:59:47;;;;;;;24.17;18.63;;;;;;;7.26;84.74;92979.41;5110062;28;20024;-53
2021/10/13 04:02:14;;;;;;;22.17;15.70;;;;;;;7.25;84.46;92977.94;5110210;28;20557;-53
2021/10/13 04:04:39;;;;;;;25.83;17.60;;;;;;;7.24;84.31;92983.94;5111494;28;20030;-52
2021/10/13 04:07:05;;;;;;;22.50;15.40;;;;;;;7.20;84.37;92989.78;5111445;28;20479;-51
2021/10/13 04:09:30;;;;;;;25.55;17.50;;;;;;;7.20;84.09;92994.53;5111386;28;20019;-50
2021/10/13 04:11:55;;;;;;;28.95;16.17;;;;;;;7.06;84.09;92974.66;5111363;28;20027;-50
2021/10/13 04:14:21;;;;;;;25.38;17.52;;;;;;;7.18;84.36;92991.59;5111327;28;20057;-52
2021/10/13 04:16:46;;;;;;;25.52;16.85;;;;;;;7.18;84.38;92992.34;5111331;28;20031;-51
2021/10/13 04:19:12;;;;;;;26.15;16.65;;;;;;;7.18;83.85;92995.09;5111150;28;20092;-49
2021/10/13 04:21:37;;;;;;;26.00;16.85;;;;;;;7.14;83.67;92991.94;5110648;28;20024;-50
2021/10/13 04:24:03;;;;;;;31.65;16.73;;;;;;;7.11;83.44;92993.03;5090799;28;20465;-50
2021/10/13 04:26:28;;;;;;;27.10;18.20;;;;;;;7.10;82.91;92996.31;5090845;28;20463;-52
2021/10/13 04:28:53;;;;;;;22.90;16.45;;;;;;;7.06;83.32;93002.13;5090477;28;20020;-49
2021/10/13 04:31:19;;;;;;;26.35;16.90;;;;;;;7.05;83.36;93006.16;5090752;28;20040;-48
2021/10/13 04:33:44;;;;;;;20.48;14.50;;;;;;;7.03;83.80;93008.69;5090708;28;20032;-49
2021/10/13 04:36:10;;;;;;;20.45;14.85;;;;;;;6.98;83.67;93009.56;5090717;28;20416;-50
2021/10/13 04:38:35;;;;;;;20.38;14.27;;;;;;;6.98;83.13;93011.56;5090624;28;20483;-49
2021/10/13 04:41:01;;;;;;;20.92;14.68;;;;;;;6.92;82.54;93006.22;5090670;28;20024;-48
2021/10/13 04:43:26;;;;;;;24.05;15.45;;;;;;;6.85;83.52;93012.38;5090177;28;20028;-48
2021/10/13 04:45:51;;;;;;;33.33;20.88;;;;;;;6.84;83.30;93016.41;5100284;28;20529;-48
2021/10/13 04:48:17;;;;;;;34.80;20.92;;;;;;;6.78;83.35;93016.50;5110556;28;20050;-48
2021/10/13 04:50:42;;;;;;;33.13;20.55;;;;;;;6.69;84.09;93022.47;5110555;28;20055;-49
2021/10/13 04:53:08;;;;;;;32.72;19.85;;;;;;;6.72;83.91;93024.16;5098464;28;20032;-48
2021/10/13 04:55:33;;;;;;;26.65;18.23;;;;;;;6.70;83.61;93020.47;5094421;28;20038;-50
2021/10/13 04:57:59;;;;;;;26.52;18.38;;;;;;;6.72;83.46;93021.41;5094669;28;20020;-48
2021/10/13 05:00:24;;;;;;;33.97;20.50;;;;;;;6.69;83.76;93030.69;5094272;28;20477;-49
2021/10/13 05:02:50;;;;;;;35.28;21.85;;;;;;;6.73;83.35;93035.84;5094376;28;20093;-49
2021/10/13 05:05:15;;;;;;;37.35;22.98;;;;;;;6.63;83.33;93021.13;5094230;28;20031;-49
2021/10/13 05:07:40;;;;;;;25.08;16.88;;;;;;;6.76;82.85;93040.25;5094508;28;20020;-50
2021/10/13 05:10:06;;;;;;;26.13;16.75;;;;;;;6.69;83.43;93040.94;5094502;28;20545;-48
2021/10/13 05:12:32;;;;;;;25.70;15.75;;;;;;;6.74;82.63;93048.28;5093182;28;20024;-48
2021/10/13 05:14:57;;;;;;;23.92;17.27;;;;;;;6.79;83.54;93050.19;5094093;28;20032;-49
2021/10/13 05:17:22;;;;;;;24.63;16.83;;;;;;;6.80;83.97;93054.38;5093918;28;20024;-49
2021/10/13 05:19:48;;;;;;;28.73;18.67;;;;;;;6.86;83.53;93057.75;5094014;28;20028;-48
2021/10/13 05:22:14;;;;;;;32.88;21.27;;;;;;;6.87;83.40;93070.94;5093801;28;20032;-49
2021/10/13 05:24:39;;;;;;;28.30;19.35;;;;;;;6.87;83.75;93073.69;5094176;28;20385;-48
2021/10/13 05:27:04;;;;;;;41.33;24.67;;;;;;;6.87;83.67;93076.41;5093003;28;20035;-49
2021/10/13 05:29:30;;;;;;;61.55;32.53;;;;;;;6.92;84.14;93077.56;5094099;28;20089;-49
2021/10/13 05:31:55;;;;;;;31.98;19.75;;;;;;;6.88;83.21;93085.41;5094075;28;20031;-49
2021/10/13 05:34:21;;;;;;;46.92;24.52;;;;;;;6.94;83.43;93091.50;5093967;28;20415;-50
2021/10/13 05:36:46;;;;;;;54.95;29.83;;;;;;;6.99;82.98;93089.91;5093914;28;20732;-48
2021/10/13 05:39:11;;;;;;;34.95;20.30;;;;;;;7.04;82.95;93087.00;5093822;28;20504;-49
2021/10/13 05:41:37;;;;;;;47.83;27.58;;;;;;;7.11;83.43;93080.84;5093872;28;20469;-49
2021/10/13 05:44:02;;;;;;;34.35;20.52;;;;;;;7.08;82.26;93084.66;5093486;28;20031;-49
2021/10/13 05:46:28;;;;;;;35.42;21.33;;;;;;;7.11;81.68;93091.84;5108598;28;20023;-49
2021/10/13 05:48:53;;;;;;;27.35;18.13;;;;;;;7.15;81.38;93097.72;5105250;28;20505;-49
2021/10/13 05:51:19;;;;;;;35.00;22.83;;;;;;;7.17;81.72;93103.41;5093731;28;20027;-48
2021/10/13 05:53:44;;;;;;;31.73;20.13;;;;;;;7.04;81.35;93080.81;5093303;28;20536;-48
2021/10/13 05:56:10;;;;;;;59.55;34.05;;;;;;;7.16;81.20;93088.25;5093590;28;20028;-50
2021/10/13 05:58:38;;;;;;;42.58;25.13;;;;;;;7.25;80.51;93092.53;5093386;28;20079;-48
2021/10/13 06:01:03;;;;;;;53.80;29.10;;;;;;;7.37;80.11;93110.94;5093148;28;20031;-49
2021/10/13 06:03:28;;;;;;;41.30;21.90;;;;;;;7.39;79.53;93111.13;5093131;28;20020;-49
2021/10/13 06:05:54;;;;;;;33.47;21.50;;;;;;;7.55;80.20;93117.50;5092302;28;20026;-48
2021/10/13 06:08:21;;;;;;;38.35;23.42;;;;;;;7.75;79.96;93116.75;5093155;28;20058;-49
2021/10/13 06:10:47;;;;;;;31.00;21.30;;;;;;;7.86;79.40;93127.44;5092971;28;20085;-49
2021/10/13 06:13:12;;;;;;;26.77;18.33;;;;;;;7.65;79.19;93085.50;5093172;28;20032;-49
2021/10/13 06:15:38;;;;;;;25.20;17.20;;;;;;;7.86;78.39;93130.19;5092931;28;20031;-49
2021/10/13 06:18:07;;;;;;;30.92;19.90;;;;;;;7.79;78.70;93124.66;5092697;28;20069;-49
2021/10/13 06:20:33;;;;;;;24.88;16.15;;;;;;;7.60;78.19;93111.13;5091969;28;20553;-50
2021/10/13 06:22:59;;;;;;;43.13;26.92;;;;;;;7.73;78.21;93133.03;5092713;28;20024;-49
2021/10/13 06:25:25;;;;;;;28.38;19.88;;;;;;;7.72;78.48;93137.06;5112279;28;20031;-49
2021/10/13 06:27:50;;;;;;;29.23;18.65;;;;;;;7.64;78.71;93128.72;5113365;28;20116;-48
2021/10/13 06:30:16;;;;;;;30.95;21.20;;;;;;;7.80;78.85;93153.59;5113284;28;20508;-49
2021/10/13 06:32:42;;;;;;;25.45;18.52;;;;;;;7.83;77.91;93149.78;5113294;28;20023;-49
2021/10/13 06:35:08;;;;;;;24.35;17.58;;;;;;;7.96;78.39;93150.44;5112906;28;20035;-49
2021/10/13 06:37:33;;;;;;;22.75;17.17;;;;;;;8.09;77.21;93152.34;5112979;28;20110;-49
2021/10/13 06:39:59;;;;;;;21.33;15.73;;;;;;;8.03;75.77;93160.00;5112909;28;20416;-48
2021/10/13 06:42:24;;;;;;;24.70;16.08;;;;;;;8.08;76.04;93156.34;5112697;28;20035;-50
2021/10/13 06:44:49;;;;;;;23.88;17.23;;;;;;;8.20;76.68;93157.56;5111621;28;20093;-48
2021/10/13 06:47:15;;;;;;;25.98;18.10;;;;;;;8.25;76.67;93164.94;5092072;28;20105;-48
2021/10/13 06:49:40;;;;;;;21.58;16.15;;;;;;;8.23;76.75;93161.97;5092517;28;20039;-49
2021/10/13 06:52:06;;;;;;;27.70;16.90;;;;;;;8.27;76.10;93165.16;5092465;28;20016;-50
2021/10/13 06:54:31;;;;;;;24.45;17.33;;;;;;;8.32;76.33;93164.25;5092094;28;20032;-49
2021/10/13 06:56:57;;;;;;;25.98;17.90;;;;;;;8.37;75.60;93161.38;5092538;28;20035;-48
2021/10/13 06:59:22;;;;;;;26.90;17.83;;;;;;;8.42;75.05;93165.25;5092024;28;20051;-49
2021/10/13 07:01:48;;;;;;;27.58;17.27;;;;;;;8.50;75.43;93168.75;5092284;28;20061;-48
2021/10/13 07:04:14;;;;;;;21.15;15.07;;;;;;;8.61;74.59;93162.97;5092274;28;20028;-49
2021/10/13 07:06:39;;;;;;;24.15;15.05;;;;;;;8.95;72.66;93174.50;5091989;28;20378;-48
2021/10/13 07:09:05;;;;;;;15.50;12.70;;;;;;;8.86;70.92;93168.75;5092224;28;20039;-49
2021/10/13 07:11:30;;;;;;;18.35;12.85;;;;;;;8.90;72.77;93172.63;5091890;28;20550;-49
2021/10/13 07:13:56;;;;;;;14.63;12.00;;;;;;;9.45;70.28;93172.25;5092670;28;20019;-49
2021/10/13 07:16:21;;;;;;;16.85;12.93;;;;;;;9.73;70.57;93172.09;5091458;28;20023;-48
2021/10/13 07:18:46;;;;;;;19.30;12.07;;;;;;;10.32;67.58;93172.69;5091144;28;20020;-49
2021/10/13 07:21:12;;;;;;;15.85;10.98;;;;;;;9.95;66.65;93157.59;5091900;28;20500;-48
2021/10/13 07:23:37;;;;;;;20.58;12.63;;;;;;;10.01;68.64;93179.47;5091248;28;20067;-49
2021/10/13 07:26:03;;;;;;;16.92;13.02;;;;;;;9.65;67.97;93179.63;5091819;28;20024;-48
2021/10/13 07:28:30;;;;;;;14.32;11.55;;;;;;;9.57;68.93;93178.91;5091874;28;20038;-48
2021/10/13 07:30:55;;;;;;;15.93;12.35;;;;;;;9.77;69.27;93181.47;5091314;28;20032;-49
2021/10/13 07:33:21;;;;;;;21.05;15.75;;;;;;;9.86;67.41;93175.44;5091532;28;20028;-50
2021/10/13 07:35:46;;;;;;;14.85;12.07;;;;;;;10.01;68.25;93173.94;5091312;28;20099;-48
2021/10/13 07:38:13;;;;;;;16.58;12.45;;;;;;;9.79;67.21;93178.91;5091320;28;20035;-49
2021/10/13 07:40:38;;;;;;;19.20;15.10;;;;;;;9.63;68.68;93182.22;5093293;28;20111;-49
2021/10/13 07:43:04;;;;;;;15.30;12.00;;;;;;;9.78;66.20;93179.47;5111523;28;20028;-49
2021/10/13 07:45:29;;;;;;;15.02;11.65;;;;;;;9.93;66.94;93187.75;5104864;28;20020;-50
2021/10/13 07:47:55;;;;;;;16.48;11.63;;;;;;;9.90;66.53;93181.31;5090958;28;20036;-49
2021/10/13 07:50:20;;;;;;;17.73;12.63;;;;;;;10.02;67.72;93181.69;5091388;28;20024;-49
2021/10/13 07:52:46;;;;;;;16.20;11.23;;;;;;;10.13;67.44;93188.88;5091358;28;20103;-50
2021/10/13 07:55:11;;;;;;;15.90;11.40;;;;;;;9.94;65.08;93194.72;5091296;28;20520;-50
2021/10/13 07:57:37;;;;;;;14.98;11.35;;;;;;;9.86;67.59;93178.19;5091193;28;20408;-48
2021/10/13 08:00:04;;;;;;;16.63;13.27;;;;;;;10.09;66.21;93186.44;5091213;28;20077;-49
2021/10/13 08:02:30;;;;;;;18.85;13.77;;;;;;;10.23;65.63;93176.00;5090954;28;20052;-49
2021/10/13 08:04:56;;;;;;;14.23;10.85;;;;;;;10.29;64.01;93182.81;5089721;28;20050;-50
2021/10/13 08:07:21;;;;;;;22.33;11.77;;;;;;;10.43;65.91;93186.84;5090845;28;20020;-50
2021/10/13 08:09:47;;;;;;;14.90;10.95;;;;;;;11.31;61.09;93187.69;5091114;28;20031;-49
2021/10/13 08:12:12;;;;;;;13.07;10.25;;;;;;;12.53;60.07;93185.56;5090768;28;20024;-49
2021/10/13 08:14:37;;;;;;;14.43;10.23;;;;;;;12.69;56.88;93195.22;5090864;28;20558;-50
2021/10/13 08:17:03;;;;;;;15.45;10.13;;;;;;;12.09;57.56;93194.44;5090552;28;20024;-49
2021/10/13 08:19:29;;;;;;;15.85;10.98;;;;;;;10.97;60.03;93181.94;5090597;28;20047;-49
2021/10/13 08:21:54;;;;;;;22.92;14.27;;;;;;;10.63;63.45;93196.91;5090561;28;20061;-48
2021/10/13 08:24:20;;;;;;;20.17;12.88;;;;;;;10.60;63.90;93195.28;5090849;28;20038;-50
2021/10/13 08:26:46;;;;;;;14.32;10.55;;;;;;;10.81;63.41;93194.28;5090433;28;20046;-48
2021/10/13 08:29:11;;;;;;;13.70;10.75;;;;;;;10.80;62.54;93179.03;5090121;28;20023;-49
2021/10/13 08:31:37;;;;;;;13.48;10.48;;;;;;;10.97;62.74;93195.72;5090420;28;20020;-49
2021/10/13 08:34:03;;;;;;;14.10;10.57;;;;;;;11.04;62.66;93192.97;5090448;28;20024;-49
2021/10/13 08:36:29;;;;;;;13.60;11.18;;;;;;;11.45;63.14;93183.38;5090342;28;20028;-49
2021/10/13 08:38:55;;;;;;;12.43;10.13;;;;;;;12.65;59.26;93172.72;5109104;28;20083;-51
2021/10/13 08:41:21;;;;;;;10.95;9.05;;;;;;;13.88;53.83;93169.38;5111043;28;20031;-50
2021/10/13 08:43:46;;;;;;;8.52;7.63;;;;;;;14.11;50.55;93169.06;5110920;28;20060;-49
2021/10/13 08:46:12;;;;;;;8.93;8.02;;;;;;;14.78;48.56;93158.88;5097980;28;20024;-50
2021/10/13 08:48:38;;;;;;;9.05;8.10;;;;;;;15.47;48.09;93159.06;5090102;28;20040;-49
2021/10/13 08:51:05;;;;;;;11.25;7.57;;;;;;;16.12;46.42;93160.78;5090502;28;20051;-51
2021/10/13 08:53:31;;;;;;;11.18;9.00;;;;;;;16.54;47.09;93166.50;5090444;28;20032;-50
2021/10/13 08:55:57;;;;;;;6.80;5.85;;;;;;;16.72;41.87;93155.84;5090509;28;20690;-50
2021/10/13 08:58:24;;;;;;;7.63;6.82;;;;;;;16.27;43.76;93174.34;5090495;28;20028;-49
2021/10/13 09:01:11;;;;;;;8.73;6.88;;;;;;;16.31;43.39;93180.94;5090455;28;20028;-50
2021/10/13 09:03:39;;;;;;;11.35;7.18;;;;;;;15.93;44.38;93181.09;5090441;28;20031;-49
2021/10/13 09:06:23;;;;;;;9.63;7.93;;;;;;;15.07;44.43;93170.03;5090496;28;20420;-49
2021/10/13 09:09:03;;;;;;;8.68;7.10;;;;;;;14.49;48.42;93185.88;5090169;28;20035;-49
2021/10/13 09:11:37;;;;;;;11.43;8.80;;;;;;;14.07;51.13;93182.63;5090106;28;20033;-49
2021/10/13 09:14:17;;;;;;;12.38;9.38;;;;;;;13.72;52.55;93195.16;5090349;28;20478;-49
2021/10/13 09:17:00;;;;;;;11.52;10.02;;;;;;;13.24;54.48;93192.81;5090390;28;20031;-49
2021/10/13 09:19:39;;;;;;;14.10;11.57;;;;;;;12.70;55.10;93194.66;5088701;28;20016;-49
2021/10/13 09:22:10;;;;;;;15.02;12.27;;;;;;;12.17;58.06;93199.91;5088503;28;20407;-50
2021/10/13 09:24:42;;;;;;;15.98;12.88;;;;;;;11.91;59.27;93203.25;5090221;28;20024;-49
2021/10/13 09:27:26;;;;;;;18.30;12.38;;;;;;;11.73;59.88;93204.44;5090272;28;20093;-48
2021/10/13 09:29:58;;;;;;;16.05;11.38;;;;;;;11.42;59.49;93203.84;5090170;28;20028;-49
2021/10/13 09:32:27;;;;;;;13.10;11.65;;;;;;;11.03;61.17;93179.69;5089967;28;20026;-49
2021/10/13 09:34:59;;;;;;;19.02;12.85;;;;;;;10.74;60.90;93223.44;5106256;28;20667;-49
2021/10/13 09:37:47;;;;;;;12.80;10.65;;;;;;;10.60;62.14;93216.63;5110439;28;20123;-51
2021/10/13 09:40:25;;;;;;;21.67;12.32;;;;;;;10.39;62.61;93208.56;5110830;28;20164;-49
2021/10/13 09:42:52;;;;;;;16.25;11.88;;;;;;;10.19;61.21;93190.19;5114279;28;20416;-49
2021/10/13 09:45:18;;;;;;;16.85;12.30;;;;;;;10.34;62.90;93189.41;5113606;28;20147;-49
2021/10/13 09:47:44;;;;;;;18.70;13.02;;;;;;;10.68;63.67;93197.31;5113721;28;20051;-49
2021/10/13 09:50:12;;;;;;;20.45;14.25;;;;;;;10.92;62.06;93194.66;5114104;28;20028;-49
2021/10/13 09:52:37;;;;;;;17.73;12.88;;;;;;;11.15;62.30;93202.88;5113734;28;20164;-49
2021/10/13 09:55:05;;;;;;;20.77;13.27;;;;;;;10.63;59.81;93210.72;5113697;28;20106;-49
2021/10/13 09:57:32;;;;;;;19.50;14.68;;;;;;;10.42;62.59;93207.44;5114023;27;20031;-49
2021/10/13 10:00:13;;;;;;;14.75;11.40;;;;;;;10.24;61.16;93203.06;5113933;28;20424;-49
2021/10/13 10:02:47;;;;;;;16.80;11.65;;;;;;;10.56;63.69;93205.22;5113526;28;20084;-48
2021/10/13 10:05:15;;;;;;;15.30;10.77;;;;;;;10.54;60.72;93208.53;5112694;28;20027;-50
2021/10/13 10:07:42;;;;;;;17.15;13.07;;;;;;;10.44;61.98;93215.91;5112313;28;20020;-50
2021/10/13 10:10:09;;;;;;;17.23;13.52;;;;;;;10.62;62.91;93212.03;5113687;28;20059;-49
2021/10/13 10:13:05;;;;;;;16.80;12.65;;;;;;;10.47;62.94;93214.06;5113709;28;20625;-48
2021/10/13 10:15:39;;;;;;;15.70;12.77;;;;;;;10.56;62.41;93211.50;5113403;28;20141;-48
2021/10/13 10:18:27;;;;;;;20.88;15.73;;;;;;;10.75;63.19;93215.84;5113478;28;20027;-50
2021/10/13 10:20:55;;;;;;;15.82;12.02;;;;;;;10.95;62.61;93217.66;5113488;28;20027;-50
2021/10/13 10:23:34;;;;;;;14.65;10.95;;;;;;;11.66;61.69;93213.50;5098387;28;20417;-49
2021/10/13 10:26:25;;;;;;;13.82;9.60;;;;;;;12.66;55.17;93205.41;5093059;28;20107;-48
2021/10/13 10:28:51;;;;;;;13.38;9.30;;;;;;;12.77;54.31;93204.94;5092759;28;20035;-50
2021/10/13 10:31:29;;;;;;;14.80;9.43;;;;;;;13.37;55.51;93198.00;5110216;28;20126;-49
2021/10/13 10:34:03;;;;;;;14.98;10.35;;;;;;;13.92;52.70;93194.69;5105138;28;20067;-49
2021/10/13 10:36:30;;;;;;;12.00;10.18;;;;;;;14.27;51.60;93192.50;5092512;28;20037;-50
2021/10/13 10:38:55;;;;;;;12.82;9.60;;;;;;;14.91;50.25;93193.84;5092345;28;20032;-50
2021/10/13 10:41:20;;;;;;;9.48;8.10;;;;;;;15.40;46.80;93196.06;5092507;28;20031;-49
2021/10/13 10:43:46;;;;;;;13.30;9.35;;;;;;;15.11;47.22;93198.13;5092652;28;20103;-48
2021/10/13 10:46:11;;;;;;;11.27;8.95;;;;;;;15.80;46.27;93201.03;5104869;28;20636;-49
2021/10/13 10:48:48;;;;;;;10.43;8.30;;;;;;;15.57;43.79;93203.56;5112508;28;20051;-47
2021/10/13 10:51:14;;;;;;;11.50;9.45;;;;;;;15.85;44.68;93189.59;5112735;28;20053;-50
2021/10/13 10:53:44;;;;;;;13.32;10.10;;;;;;;15.38;46.62;93200.75;5112570;28;20026;-50
2021/10/13 10:56:10;;;;;;;10.73;9.00;;;;;;;15.99;44.97;93201.00;5112940;28;20027;-48
2021/10/13 10:58:36;;;;;;;11.40;8.05;;;;;;;16.68;43.05;93193.25;5112449;28;20046;-48
2021/10/13 11:01:12;;;;;;;10.63;8.43;;;;;;;16.78;41.30;93186.91;5112505;28;20016;-49
2021/10/13 11:03:42;;;;;;;9.73;8.38;;;;;;;16.99;43.17;93192.50;5112427;27;20504;-48
2021/10/13 11:06:12;;;;;;;13.23;8.65;;;;;;;17.96;41.75;93191.13;5112609;28;20024;-48
2021/10/13 11:08:49;;;;;;;13.00;8.20;;;;;;;17.36;41.04;93197.09;5112538;28;20068;-48
2021/10/13 11:11:15;;;;;;;10.40;8.70;;;;;;;16.67;41.89;93189.00;5112286;28;20405;-48
2021/10/13 11:13:40;;;;;;;10.70;8.63;;;;;;;16.59;41.09;93190.50;5112200;28;20030;-48
2021/10/13 11:16:07;;;;;;;12.25;10.10;;;;;;;15.51;45.05;93187.16;5112107;28;20020;-47
2021/10/13 11:18:32;;;;;;;12.85;10.30;;;;;;;15.53;44.92;93192.88;5112288;28;20023;-48
2021/10/13 11:21:08;;;;;;;9.82;8.23;;;;;;;15.11;44.24;93189.78;5112049;28;20389;-48
2021/10/13 11:23:34;;;;;;;10.88;8.88;;;;;;;14.84;45.68;93170.44;5095201;28;20567;-48
2021/10/13 11:25:59;;;;;;;10.38;8.82;;;;;;;15.13;46.06;93164.91;5096431;28;20102;-49
2021/10/13 11:28:33;;;;;;;10.80;8.40;;;;;;;15.47;45.39;93186.13;5112218;28;20549;-48